Time;durP1;ratioP1;P1;durP2;ratioP2;P2;SDS_P1;SDS_P2;PMS_P1;PMS_P2;Temp;Humidity;BMP_temperature;BMP_pressure;BME280_temperature;BME280_humidity;BME280_pressure;Samples;Min_cycle;Max_cycle;Signal;HPM_P1;HPM_P2
2022/03/04 00:00:40;;;;;;;24.90;11.95;;;;;;;3.43;49.01;100318.38;5111407;28;20047;-61
2022/03/04 00:03:07;;;;;;;22.17;11.27;;;;;;;3.38;49.26;100317.59;5111844;28;20056;-63
2022/03/04 00:05:33;;;;;;;21.70;11.73;;;;;;;3.32;49.47;100321.16;5111957;28;20051;-64
2022/03/04 00:08:00;;;;;;;22.88;12.43;;;;;;;3.28;49.35;100321.28;5111573;28;20048;-62
2022/03/04 00:10:27;;;;;;;24.38;11.95;;;;;;;3.22;49.37;100323.06;5111732;28;20052;-61
2022/03/04 00:12:54;;;;;;;23.52;12.18;;;;;;;3.18;50.21;100326.59;5111943;28;20052;-62
2022/03/04 00:15:21;;;;;;;26.70;11.85;;;;;;;3.12;49.90;100324.13;5111379;28;20079;-61
2022/03/04 00:17:48;;;;;;;21.42;11.40;;;;;;;3.09;49.93;100321.56;5110565;28;20080;-63
2022/03/04 00:20:14;;;;;;;23.23;12.10;;;;;;;3.07;50.23;100325.94;5111511;27;20412;-61
2022/03/04 00:22:42;;;;;;;20.83;11.35;;;;;;;3.03;50.19;100325.13;5111658;28;20104;-61
2022/03/04 00:25:08;;;;;;;21.83;11.68;;;;;;;2.99;49.67;100321.72;5110187;28;20051;-62
2022/03/04 00:27:35;;;;;;;24.40;11.80;;;;;;;2.95;50.45;100317.47;5111337;28;20059;-62
2022/03/04 00:30:02;;;;;;;23.98;12.27;;;;;;;2.90;50.50;100319.28;5111671;28;20055;-61
2022/03/04 00:32:29;;;;;;;23.23;11.52;;;;;;;2.88;50.16;100328.84;5109415;28;20092;-62
2022/03/04 00:34:55;;;;;;;23.73;12.02;;;;;;;2.85;50.14;100331.50;5111215;28;20480;-61
2022/03/04 00:37:22;;;;;;;20.98;11.90;;;;;;;2.82;50.60;100339.34;5111592;28;20112;-64
2022/03/04 00:39:49;;;;;;;22.20;12.70;;;;;;;2.78;50.80;100338.53;5111157;28;20476;-62
2022/03/04 00:42:15;;;;;;;24.52;12.63;;;;;;;2.74;50.81;100332.50;5111179;28;20055;-62
2022/03/04 00:44:42;;;;;;;24.02;13.13;;;;;;;2.71;50.77;100327.38;5111239;28;20470;-63
2022/03/04 00:47:08;;;;;;;24.02;12.82;;;;;;;2.69;50.59;100330.88;5111216;28;20040;-62
2022/03/04 00:49:35;;;;;;;24.05;12.27;;;;;;;2.66;50.38;100341.31;5109614;28;20051;-62
2022/03/04 00:52:02;;;;;;;26.88;12.60;;;;;;;2.62;50.70;100332.72;5111195;28;20120;-63
2022/03/04 00:54:28;;;;;;;23.90;11.75;;;;;;;2.59;50.54;100337.94;5111026;28;20085;-62
2022/03/04 00:56:55;;;;;;;24.77;13.00;;;;;;;2.56;51.02;100344.06;5111269;28;20116;-63
2022/03/04 00:59:22;;;;;;;24.58;12.18;;;;;;;2.53;50.94;100345.81;5111053;28;20056;-61
2022/03/04 01:01:51;;;;;;;22.02;11.45;;;;;;;2.51;51.15;100345.00;5110858;28;20499;-62
2022/03/04 01:04:18;;;;;;;20.23;11.95;;;;;;;2.47;51.38;100341.59;5110520;28;20070;-62
2022/03/04 01:06:45;;;;;;;22.27;12.02;;;;;;;2.43;51.67;100345.94;5110957;28;20545;-61
2022/03/04 01:09:12;;;;;;;20.08;11.68;;;;;;;2.42;51.55;100345.97;5110891;28;20051;-64
2022/03/04 01:11:38;;;;;;;21.23;11.65;;;;;;;2.39;51.34;100349.47;5111112;28;20051;-61
2022/03/04 01:14:06;;;;;;;22.88;12.00;;;;;;;2.37;51.25;100348.66;5110266;28;20492;-63
2022/03/04 01:16:32;;;;;;;22.20;11.65;;;;;;;2.35;51.87;100347.78;5109504;28;20082;-61
2022/03/04 01:18:59;;;;;;;21.45;11.27;;;;;;;2.32;51.77;100353.06;5110890;28;20412;-61
2022/03/04 01:21:26;;;;;;;23.77;11.98;;;;;;;2.30;51.64;100349.59;5110666;28;20051;-61
2022/03/04 01:23:52;;;;;;;23.23;12.30;;;;;;;2.28;51.65;100351.38;5110732;28;20059;-63
2022/03/04 01:26:19;;;;;;;23.13;11.70;;;;;;;2.26;51.41;100361.78;5110530;28;20056;-64
2022/03/04 01:28:46;;;;;;;23.25;12.05;;;;;;;2.26;51.54;100366.09;5110566;28;20561;-63
2022/03/04 01:31:14;;;;;;;26.35;12.40;;;;;;;2.25;52.19;100372.19;5110310;28;20097;-62
2022/03/04 01:33:42;;;;;;;26.60;12.82;;;;;;;2.26;51.92;100373.91;5110450;28;20138;-63
2022/03/04 01:36:09;;;;;;;24.05;12.55;;;;;;;2.26;52.21;100373.91;5110563;28;20097;-62
2022/03/04 01:38:36;;;;;;;23.13;12.10;;;;;;;2.25;52.13;100378.25;5110453;28;20043;-63
2022/03/04 01:41:03;;;;;;;27.67;12.73;;;;;;;2.24;51.80;100375.66;5110565;28;20062;-63
2022/03/04 01:43:29;;;;;;;25.90;13.32;;;;;;;2.22;51.85;100375.69;5110309;28;20080;-64
2022/03/04 01:45:56;;;;;;;23.45;13.05;;;;;;;2.21;51.95;100371.38;5110434;28;20056;-62
2022/03/04 01:48:23;;;;;;;21.70;11.68;;;;;;;2.20;51.91;100370.50;5110363;28;20051;-63
2022/03/04 01:50:52;;;;;;;25.92;13.65;;;;;;;2.19;51.94;100373.97;5110335;28;20047;-62
2022/03/04 01:53:19;;;;;;;30.52;14.27;;;;;;;2.18;52.22;100364.47;5109388;28;20056;-61
2022/03/04 01:55:46;;;;;;;23.08;13.13;;;;;;;2.18;52.57;100369.69;5110392;28;20496;-62
2022/03/04 01:58:12;;;;;;;21.60;12.10;;;;;;;2.16;52.71;100366.22;5110527;28;20469;-61
2022/03/04 02:00:39;;;;;;;26.42;13.35;;;;;;;2.16;52.31;100362.75;5109912;28;20047;-62
2022/03/04 02:03:10;;;;;;;24.13;12.63;;;;;;;2.14;53.49;100364.53;5110424;28;20696;-61
2022/03/04 02:05:37;;;;;;;24.33;12.70;;;;;;;2.12;52.36;100364.53;5109005;28;20086;-64
2022/03/04 02:08:04;;;;;;;22.77;12.93;;;;;;;2.11;52.19;100368.03;5110535;28;20047;-63
2022/03/04 02:10:31;;;;;;;26.48;13.27;;;;;;;2.10;52.69;100361.13;5110509;28;20052;-62
2022/03/04 02:12:57;;;;;;;26.92;14.27;;;;;;;2.09;52.64;100356.78;5110708;28;20080;-61
2022/03/04 02:15:24;;;;;;;26.45;14.18;;;;;;;2.07;52.86;100362.00;5109895;28;20441;-64
2022/03/04 02:17:51;;;;;;;26.10;13.95;;;;;;;2.06;52.49;100368.06;5110239;28;20117;-61
2022/03/04 02:20:22;;;;;;;27.63;14.00;;;;;;;2.05;52.83;100368.06;5109674;28;20557;-62
2022/03/04 02:22:49;;;;;;;28.35;13.90;;;;;;;2.05;52.81;100370.66;5088610;28;20056;-61
2022/03/04 02:25:16;;;;;;;23.42;13.82;;;;;;;2.05;52.85;100360.28;5088581;28;20052;-62
2022/03/04 02:27:43;;;;;;;26.00;13.90;;;;;;;2.05;52.84;100365.47;5089679;28;20052;-62
2022/03/04 02:30:10;;;;;;;25.70;14.02;;;;;;;2.04;53.00;100353.38;5089524;28;20055;-62
2022/03/04 02:32:36;;;;;;;26.10;14.63;;;;;;;2.03;52.86;100354.25;5108068;28;20059;-62
2022/03/04 02:35:04;;;;;;;27.85;14.85;;;;;;;2.01;52.80;100354.28;5110279;28;20074;-63
2022/03/04 02:37:30;;;;;;;23.08;12.95;;;;;;;2.01;52.51;100351.69;5110112;28;20430;-62
2022/03/04 02:39:57;;;;;;;29.75;13.95;;;;;;;1.99;52.34;100349.97;5112217;28;20052;-65
2022/03/04 02:42:23;;;;;;;26.33;14.52;;;;;;;1.97;52.53;100347.41;5113856;28;20175;-62
2022/03/04 02:44:50;;;;;;;23.05;13.05;;;;;;;1.96;52.74;100350.88;5113731;28;20093;-61
2022/03/04 02:47:16;;;;;;;24.25;13.05;;;;;;;1.94;53.28;100347.44;5113125;28;20104;-61
2022/03/04 02:49:48;;;;;;;26.30;14.85;;;;;;;1.93;52.76;100346.59;5113989;28;20052;-61
2022/03/04 02:52:15;;;;;;;25.55;14.10;;;;;;;1.94;53.04;100347.44;5113468;28;20100;-61
2022/03/04 02:54:41;;;;;;;24.02;13.48;;;;;;;1.92;53.44;100337.09;5113486;28;20054;-63
2022/03/04 02:57:08;;;;;;;26.48;13.43;;;;;;;1.91;53.06;100335.34;5113286;28;20105;-63
2022/03/04 02:59:34;;;;;;;23.23;12.50;;;;;;;1.91;53.00;100340.53;5112975;28;20052;-61
2022/03/04 03:02:01;;;;;;;25.85;13.60;;;;;;;1.90;53.59;100345.75;5113330;28;20081;-61
2022/03/04 03:04:28;;;;;;;25.20;13.38;;;;;;;1.88;53.30;100348.38;5112759;28;20515;-62
2022/03/04 03:06:54;;;;;;;25.98;13.70;;;;;;;1.88;53.06;100339.72;5113318;27;20047;-62
2022/03/04 03:09:21;;;;;;;27.25;14.63;;;;;;;1.89;53.31;100342.31;5113112;28;20039;-62
2022/03/04 03:11:47;;;;;;;25.50;13.45;;;;;;;1.89;52.83;100346.63;5113036;28;20113;-64
2022/03/04 03:14:14;;;;;;;26.75;13.88;;;;;;;1.88;53.49;100343.19;5112678;28;20047;-62
2022/03/04 03:16:40;;;;;;;27.88;14.00;;;;;;;1.89;53.52;100344.03;5113371;28;20048;-62
2022/03/04 03:19:08;;;;;;;28.02;13.80;;;;;;;1.88;53.28;100350.97;5112675;28;20082;-62
2022/03/04 03:21:34;;;;;;;24.17;12.90;;;;;;;1.87;53.04;100344.03;5112943;28;20055;-62
2022/03/04 03:24:01;;;;;;;26.85;13.50;;;;;;;1.86;52.91;100347.53;5112830;28;20104;-62
2022/03/04 03:26:27;;;;;;;27.75;14.30;;;;;;;1.83;53.70;100347.56;5112828;28;20043;-62
2022/03/04 03:28:54;;;;;;;34.53;14.00;;;;;;;1.82;53.86;100353.63;5112496;28;20112;-62
2022/03/04 03:31:21;;;;;;;24.67;13.40;;;;;;;1.81;53.38;100359.69;5112831;28;20096;-61
2022/03/04 03:33:47;;;;;;;25.08;13.55;;;;;;;1.80;54.16;100368.38;5113008;28;20149;-62
2022/03/04 03:36:14;;;;;;;25.75;13.27;;;;;;;1.78;53.23;100362.31;5112630;28;20564;-63
2022/03/04 03:38:40;;;;;;;32.35;13.98;;;;;;;1.77;53.40;100355.41;5111435;28;20051;-63
2022/03/04 03:41:07;;;;;;;25.00;13.45;;;;;;;1.76;53.50;100362.34;5112428;28;20484;-61
2022/03/04 03:43:40;;;;;;;27.63;14.50;;;;;;;1.77;54.23;100369.28;5111125;28;20036;-62
2022/03/04 03:46:06;;;;;;;26.10;12.93;;;;;;;1.76;53.38;100366.69;5111233;28;20052;-63
2022/03/04 03:48:33;;;;;;;27.25;14.27;;;;;;;1.71;53.33;100358.09;5112407;28;20051;-62
2022/03/04 03:51:01;;;;;;;27.70;15.18;;;;;;;1.68;53.50;100362.44;5111701;28;20055;-64
2022/03/04 03:53:27;;;;;;;26.85;13.65;;;;;;;1.64;53.28;100360.75;5112409;28;20475;-62
2022/03/04 03:55:54;;;;;;;27.63;15.10;;;;;;;1.63;53.82;100369.41;5111949;28;20043;-63
2022/03/04 03:58:20;;;;;;;29.58;14.30;;;;;;;1.61;53.49;100365.09;5112416;28;20192;-63
2022/03/04 04:00:47;;;;;;;30.90;14.52;;;;;;;1.61;53.61;100368.53;5111611;28;20087;-62
2022/03/04 04:03:14;;;;;;;26.50;12.80;;;;;;;1.61;54.21;100376.31;5112351;28;20051;-62
2022/03/04 04:05:40;;;;;;;28.23;13.38;;;;;;;1.62;53.89;100378.06;5112224;28;20044;-63
2022/03/04 04:08:07;;;;;;;27.90;14.55;;;;;;;1.62;54.44;100375.47;5112092;28;20052;-63
2022/03/04 04:10:33;;;;;;;27.58;14.57;;;;;;;1.61;54.32;100376.31;5111806;28;20047;-63
2022/03/04 04:13:00;;;;;;;26.17;13.93;;;;;;;1.64;54.21;100380.66;5112335;28;20044;-63
2022/03/04 04:15:26;;;;;;;28.73;13.48;;;;;;;1.64;53.89;100380.66;5111797;28;20564;-62
2022/03/04 04:17:54;;;;;;;24.70;12.48;;;;;;;1.64;54.57;100380.66;5110094;28;20055;-64
2022/03/04 04:20:21;;;;;;;29.33;13.20;;;;;;;1.65;54.44;100382.38;5110333;28;20043;-62
2022/03/04 04:22:47;;;;;;;28.17;13.98;;;;;;;1.64;54.10;100386.69;5111776;28;20428;-62
2022/03/04 04:25:14;;;;;;;29.30;14.65;;;;;;;1.64;54.42;100393.63;5111591;28;20453;-63
2022/03/04 04:27:40;;;;;;;29.58;14.73;;;;;;;1.64;54.44;100389.28;5111769;28;20043;-61
2022/03/04 04:30:08;;;;;;;28.33;13.25;;;;;;;1.67;54.50;100388.38;5111782;28;20051;-65
2022/03/04 04:32:35;;;;;;;27.85;13.82;;;;;;;1.69;54.00;100389.25;5110135;28;20036;-62
2022/03/04 04:35:01;;;;;;;25.05;14.23;;;;;;;1.69;54.69;100391.84;5111429;28;20040;-65
2022/03/04 04:37:28;;;;;;;29.05;13.60;;;;;;;1.68;54.05;100385.78;5111567;28;20055;-62
2022/03/04 04:39:54;;;;;;;24.95;13.27;;;;;;;1.67;54.06;100388.38;5111223;28;20051;-62
2022/03/04 04:42:21;;;;;;;26.63;13.55;;;;;;;1.65;54.00;100397.94;5111539;28;20052;-62
2022/03/04 04:44:48;;;;;;;26.42;13.93;;;;;;;1.62;54.78;100388.47;5111431;28;20051;-63
2022/03/04 04:47:14;;;;;;;26.73;13.35;;;;;;;1.62;54.71;100396.25;5111463;28;20416;-62
2022/03/04 04:49:41;;;;;;;26.95;13.50;;;;;;;1.61;54.67;100388.47;5110661;28;20086;-62
2022/03/04 04:52:08;;;;;;;27.02;13.70;;;;;;;1.60;54.35;100389.34;5111221;28;20047;-62
2022/03/04 04:54:35;;;;;;;27.55;13.02;;;;;;;1.59;54.74;100390.19;5111026;28;20055;-62
2022/03/04 04:57:03;;;;;;;24.90;13.13;;;;;;;1.58;54.53;100388.47;5111172;28;20040;-64
2022/03/04 04:59:30;;;;;;;26.95;13.63;;;;;;;1.56;54.79;100388.50;5110906;28;20043;-62
2022/03/04 05:01:57;;;;;;;28.38;14.05;;;;;;;1.56;54.33;100385.91;5110575;28;20047;-62
2022/03/04 05:04:24;;;;;;;27.40;13.65;;;;;;;1.56;54.12;100383.31;5110917;28;20049;-61
2022/03/04 05:06:50;;;;;;;25.83;13.75;;;;;;;1.56;54.42;100383.31;5110901;28;20115;-62
2022/03/04 05:09:17;;;;;;;27.95;14.10;;;;;;;1.53;54.25;100380.75;5111166;28;20039;-64
2022/03/04 05:11:43;;;;;;;28.23;14.05;;;;;;;1.51;54.80;100377.31;5110819;28;20048;-62
2022/03/04 05:14:10;;;;;;;28.02;13.68;;;;;;;1.49;54.79;100379.06;5110760;28;20051;-65
2022/03/04 05:16:37;;;;;;;28.25;14.30;;;;;;;1.47;55.09;100373.88;5110897;28;20479;-62
2022/03/04 05:19:04;;;;;;;26.15;13.18;;;;;;;1.48;54.80;100374.72;5109525;28;20349;-62
2022/03/04 05:21:31;;;;;;;27.27;13.52;;;;;;;1.49;55.05;100379.91;5110530;28;20497;-62
2022/03/04 05:24:00;;;;;;;29.50;14.50;;;;;;;1.51;55.22;100385.97;5110876;28;20052;-62
2022/03/04 05:26:31;;;;;;;26.90;14.45;;;;;;;1.54;55.06;100388.50;5110889;28;20070;-63
2022/03/04 05:29:02;;;;;;;26.40;14.07;;;;;;;1.57;55.82;100395.41;5109204;28;20055;-62
2022/03/04 05:31:28;;;;;;;29.25;13.93;;;;;;;1.60;55.49;100397.97;5109235;28;20047;-62
2022/03/04 05:33:55;;;;;;;30.25;14.68;;;;;;;1.64;55.03;100397.06;5110181;28;20511;-61
2022/03/04 05:36:23;;;;;;;26.17;13.60;;;;;;;1.67;55.80;100401.38;5110953;28;20051;-62
2022/03/04 05:38:50;;;;;;;28.98;14.77;;;;;;;1.70;55.57;100406.53;5110893;28;20047;-63
2022/03/04 05:41:17;;;;;;;29.33;14.48;;;;;;;1.72;55.42;100404.78;5109145;28;20051;-65
2022/03/04 05:43:45;;;;;;;30.33;14.60;;;;;;;1.74;55.37;100396.97;5110381;28;20040;-62
2022/03/04 05:46:11;;;;;;;27.85;14.77;;;;;;;1.75;55.40;100401.31;5109333;28;20052;-62
2022/03/04 05:48:38;;;;;;;27.75;13.77;;;;;;;1.74;54.84;100392.66;5110764;28;20048;-62
2022/03/04 05:51:06;;;;;;;31.40;15.30;;;;;;;1.75;55.26;100388.34;5110198;28;20431;-62
2022/03/04 05:53:33;;;;;;;32.92;15.15;;;;;;;1.75;54.81;100390.94;5109868;28;20440;-62
2022/03/04 05:56:01;;;;;;;30.33;15.02;;;;;;;1.74;55.11;100396.97;5109075;28;20104;-62
2022/03/04 05:58:27;;;;;;;29.95;15.27;;;;;;;1.72;55.34;100396.16;5109302;28;20077;-63
2022/03/04 06:00:54;;;;;;;31.90;16.45;;;;;;;1.73;55.34;100400.44;5109624;28;20044;-62
2022/03/04 06:03:21;;;;;;;29.95;15.40;;;;;;;1.71;55.23;100391.84;5110823;28;20130;-62
2022/03/04 06:05:48;;;;;;;26.48;12.85;;;;;;;1.71;55.66;100394.44;5109106;28;20051;-64
2022/03/04 06:08:15;;;;;;;30.60;15.55;;;;;;;1.69;54.73;100397.88;5110440;28;20472;-62
2022/03/04 06:10:41;;;;;;;30.75;14.95;;;;;;;1.68;54.92;100400.47;5110106;28;20447;-64
2022/03/04 06:13:08;;;;;;;25.50;13.77;;;;;;;1.65;55.71;100406.56;5111324;28;20059;-63
2022/03/04 06:15:35;;;;;;;30.63;14.38;;;;;;;1.64;55.05;100407.44;5113700;28;20437;-63
2022/03/04 06:18:01;;;;;;;27.60;13.93;;;;;;;1.61;55.50;100406.63;5114229;27;20097;-61
2022/03/04 06:20:29;;;;;;;28.88;14.25;;;;;;;1.60;55.58;100416.13;5113897;28;20054;-62
2022/03/04 06:22:55;;;;;;;26.20;13.10;;;;;;;1.60;55.52;100410.94;5113991;28;20047;-61
2022/03/04 06:25:22;;;;;;;25.02;13.07;;;;;;;1.62;55.31;100410.94;5113191;28;20044;-63
2022/03/04 06:27:57;;;;;;;29.23;13.73;;;;;;;1.61;57.09;100420.44;5114173;28;20043;-62
2022/03/04 06:30:26;;;;;;;28.95;13.85;;;;;;;1.64;55.89;100423.03;5113775;27;20056;-65
2022/03/04 06:33:30;;;;;;;25.92;13.00;;;;;;;1.64;55.46;100428.22;5113603;28;20050;-62
2022/03/04 06:35:44;;;;;;;30.15;13.95;;;;;;;1.65;55.48;100424.72;5113905;28;20082;-61
2022/03/04 06:38:11;;;;;;;27.75;13.32;;;;;;;1.66;55.67;100428.19;5112707;28;20085;-62
2022/03/04 06:40:38;;;;;;;31.58;14.65;;;;;;;1.66;55.53;100433.41;5113477;28;20043;-65
2022/03/04 06:43:05;;;;;;;29.38;14.40;;;;;;;1.66;55.56;100438.59;5113830;28;20097;-62
2022/03/04 06:45:33;;;;;;;27.48;14.48;;;;;;;1.66;55.67;100443.78;5113704;28;20055;-62
2022/03/04 06:47:59;;;;;;;30.75;14.98;;;;;;;1.67;55.59;100441.16;5113462;28;20176;-62
2022/03/04 06:50:26;;;;;;;33.90;15.48;;;;;;;1.69;56.11;100442.00;5113390;28;20057;-62
2022/03/04 06:52:53;;;;;;;34.97;15.38;;;;;;;1.71;55.67;100441.16;5113094;28;20534;-62
2022/03/04 06:55:20;;;;;;;33.33;16.23;;;;;;;1.74;55.43;100435.91;5113274;28;20071;-61
2022/03/04 06:57:50;;;;;;;33.15;17.15;;;;;;;1.75;56.46;100446.28;5113072;28;20073;-62
2022/03/04 07:00:18;;;;;;;42.17;16.67;;;;;;;1.77;56.18;100460.13;5112241;28;20096;-62
2022/03/04 07:02:45;;;;;;;30.75;14.82;;;;;;;1.81;56.15;100458.34;5113562;28;20055;-64
2022/03/04 07:05:12;;;;;;;31.90;15.43;;;;;;;1.82;55.89;100458.34;5112905;28;20504;-64
2022/03/04 07:07:39;;;;;;;31.23;15.25;;;;;;;1.83;55.49;100461.78;5111959;28;20108;-63
2022/03/04 07:10:06;;;;;;;28.98;14.82;;;;;;;1.80;55.71;100454.03;5112504;28;20052;-62
2022/03/04 07:12:33;;;;;;;32.45;15.98;;;;;;;1.78;55.36;100455.78;5112457;28;20075;-63
2022/03/04 07:15:00;;;;;;;33.42;15.88;;;;;;;1.77;56.07;100446.28;5111876;28;20097;-62
2022/03/04 07:17:26;;;;;;;30.08;15.85;;;;;;;1.76;55.63;100455.78;5112229;28;20561;-63
2022/03/04 07:19:53;;;;;;;33.38;16.00;;;;;;;1.77;55.83;100454.06;5111950;28;20128;-64
2022/03/04 07:22:19;;;;;;;33.63;15.73;;;;;;;1.79;56.17;100447.09;5112901;28;20470;-63
2022/03/04 07:24:46;;;;;;;31.92;15.40;;;;;;;1.80;55.99;100460.06;5112520;27;20059;-62
2022/03/04 07:27:12;;;;;;;31.75;15.07;;;;;;;1.83;55.87;100459.19;5112999;28;20124;-62
2022/03/04 07:29:39;;;;;;;31.65;16.33;;;;;;;1.83;56.05;100451.38;5112610;28;20096;-64
2022/03/04 07:32:06;;;;;;;34.45;15.45;;;;;;;1.85;55.73;100456.56;5113153;28;20048;-62
2022/03/04 07:34:32;;;;;;;30.08;15.13;;;;;;;1.83;55.78;100454.00;5112486;28;20083;-64
2022/03/04 07:36:59;;;;;;;32.22;15.20;;;;;;;1.82;55.77;100442.75;5112807;28;20081;-61
2022/03/04 07:39:25;;;;;;;30.55;15.00;;;;;;;1.82;55.49;100454.88;5112867;28;20039;-62
2022/03/04 07:41:52;;;;;;;30.63;15.43;;;;;;;1.78;55.63;100451.44;5112805;28;20104;-61
2022/03/04 07:44:19;;;;;;;32.38;14.95;;;;;;;1.77;55.84;100459.25;5112302;28;20048;-63
2022/03/04 07:46:45;;;;;;;32.47;16.25;;;;;;;1.77;55.87;100454.94;5112392;28;20422;-61
2022/03/04 07:49:13;;;;;;;31.67;15.80;;;;;;;1.78;55.56;100460.97;5112237;28;20054;-63
2022/03/04 07:51:39;;;;;;;30.63;15.35;;;;;;;1.78;56.18;100460.97;5111192;28;20531;-62
2022/03/04 07:54:06;;;;;;;31.50;16.38;;;;;;;1.80;55.65;100459.22;5112718;28;20039;-61
2022/03/04 07:56:33;;;;;;;30.98;14.90;;;;;;;1.82;56.37;100460.06;5112349;28;20047;-62
2022/03/04 07:59:00;;;;;;;29.52;15.13;;;;;;;1.84;56.79;100460.94;5112398;28;20051;-65
2022/03/04 08:01:26;;;;;;;33.00;16.58;;;;;;;1.88;56.73;100461.75;5111622;28;20161;-62
2022/03/04 08:03:53;;;;;;;32.88;15.70;;;;;;;1.92;56.21;100463.44;5112159;28;20051;-62
2022/03/04 08:06:20;;;;;;;30.35;14.98;;;;;;;1.97;56.73;100469.44;5112048;27;20059;-62
2022/03/04 08:08:47;;;;;;;34.85;16.73;;;;;;;2.01;55.93;100471.13;5112306;28;20090;-61
2022/03/04 08:11:13;;;;;;;35.13;16.65;;;;;;;2.04;55.86;100476.31;5111834;28;20199;-61
2022/03/04 08:13:40;;;;;;;34.45;16.40;;;;;;;2.05;56.35;100474.53;5110920;28;20069;-62
2022/03/04 08:16:06;;;;;;;36.10;17.08;;;;;;;2.06;56.62;100474.53;5111590;28;20419;-62
2022/03/04 08:18:33;;;;;;;34.35;17.90;;;;;;;2.09;55.93;100481.44;5111816;28;20051;-61
2022/03/04 08:21:00;;;;;;;38.17;17.92;;;;;;;2.10;56.11;100477.97;5112061;28;20105;-62
2022/03/04 08:23:27;;;;;;;39.20;19.50;;;;;;;2.13;56.32;100487.47;5110588;28;20051;-63
2022/03/04 08:25:55;;;;;;;41.47;18.95;;;;;;;2.14;56.36;100479.69;5111686;28;20083;-61
2022/03/04 08:28:22;;;;;;;37.95;17.92;;;;;;;2.16;56.45;100488.28;5111614;28;20377;-61
2022/03/04 08:30:49;;;;;;;42.55;19.77;;;;;;;2.17;56.25;100479.63;5111313;28;20048;-63
2022/03/04 08:33:16;;;;;;;43.70;20.00;;;;;;;2.19;56.56;100479.59;5110057;28;20104;-62
2022/03/04 08:35:42;;;;;;;40.35;20.13;;;;;;;2.21;56.88;100481.31;5111742;28;20487;-61
2022/03/04 08:38:09;;;;;;;38.22;19.33;;;;;;;2.26;56.27;100491.66;5111401;28;20039;-63
2022/03/04 08:40:35;;;;;;;40.55;19.85;;;;;;;2.31;56.77;100489.00;5111200;28;20167;-64
2022/03/04 08:43:02;;;;;;;41.08;19.70;;;;;;;2.36;56.46;100489.84;5111360;28;20083;-61
2022/03/04 08:45:29;;;;;;;41.25;20.13;;;;;;;2.41;56.95;100488.03;5111377;28;20048;-61
2022/03/04 08:47:55;;;;;;;45.33;20.20;;;;;;;2.46;56.67;100483.66;5111316;28;20070;-62
2022/03/04 08:50:22;;;;;;;44.78;20.33;;;;;;;2.51;56.62;100481.00;5111164;28;20051;-63
2022/03/04 08:52:48;;;;;;;39.60;19.45;;;;;;;2.56;56.65;100480.94;5111903;28;20470;-61
2022/03/04 08:55:15;;;;;;;38.70;19.60;;;;;;;2.58;55.71;100487.81;5111465;28;20096;-64
2022/03/04 08:57:44;;;;;;;44.20;20.33;;;;;;;2.58;56.05;100487.00;5111185;27;20484;-61
2022/03/04 09:00:11;;;;;;;39.17;19.15;;;;;;;2.61;56.19;100486.94;5109533;28;20508;-61
2022/03/04 09:02:38;;;;;;;45.38;20.08;;;;;;;2.62;56.11;100490.41;5111175;28;20059;-63
2022/03/04 09:05:05;;;;;;;47.50;21.75;;;;;;;2.66;56.53;100482.56;5110869;28;20052;-61
2022/03/04 09:07:34;;;;;;;45.67;21.17;;;;;;;2.70;56.91;100484.22;5111023;28;20102;-62
2022/03/04 09:10:01;;;;;;;42.85;20.60;;;;;;;2.77;56.52;100494.56;5109655;28;20055;-61
2022/03/04 09:12:28;;;;;;;40.17;19.92;;;;;;;2.84;56.64;100483.19;5111070;28;20138;-61
2022/03/04 09:14:54;;;;;;;45.17;20.90;;;;;;;2.90;56.93;100493.50;5110718;28;20104;-61
2022/03/04 09:17:21;;;;;;;45.40;21.77;;;;;;;2.97;56.80;100487.34;5110820;28;20483;-61
2022/03/04 09:19:48;;;;;;;44.15;21.85;;;;;;;3.04;56.61;100485.53;5110781;28;20381;-63
2022/03/04 09:22:23;;;;;;;45.67;22.33;;;;;;;3.09;56.04;100482.84;5111014;28;20048;-61
2022/03/04 09:24:49;;;;;;;43.10;20.63;;;;;;;3.13;56.29;100488.00;5111023;28;20100;-62
2022/03/04 09:27:16;;;;;;;38.35;20.05;;;;;;;3.17;56.08;100494.00;5110331;28;20047;-62
2022/03/04 09:29:42;;;;;;;49.72;24.67;;;;;;;3.22;56.32;100494.78;5110530;28;20048;-61
2022/03/04 09:32:09;;;;;;;48.97;25.38;;;;;;;3.28;56.72;100487.81;5110784;28;20048;-61
2022/03/04 09:34:35;;;;;;;54.13;27.30;;;;;;;3.32;56.49;100497.28;5110870;28;20415;-61
2022/03/04 09:37:02;;;;;;;42.10;22.08;;;;;;;3.38;56.73;100485.03;5110752;28;20097;-63
2022/03/04 09:39:29;;;;;;;39.55;20.63;;;;;;;3.46;56.48;100494.44;5110592;28;20044;-61
2022/03/04 09:41:56;;;;;;;36.83;18.80;;;;;;;3.52;56.17;100492.59;5110649;28;20047;-62
2022/03/04 09:44:22;;;;;;;32.15;17.58;;;;;;;3.58;56.63;100486.44;5110373;28;20082;-63
2022/03/04 09:46:51;;;;;;;35.90;18.58;;;;;;;3.64;56.35;100488.09;5110856;28;20051;-62
2022/03/04 09:49:35;;;;;;;43.20;22.13;;;;;;;3.71;57.24;100488.84;5113888;28;20075;-61
2022/03/04 09:52:03;;;;;;;43.22;21.88;;;;;;;3.81;56.70;100492.16;5114769;28;20056;-62
2022/03/04 09:54:30;;;;;;;47.17;24.33;;;;;;;3.90;56.58;100489.41;5113403;28;20047;-62
2022/03/04 09:56:57;;;;;;;44.10;21.85;;;;;;;4.01;56.49;100495.25;5113462;28;20055;-62
2022/03/04 09:59:24;;;;;;;43.33;22.42;;;;;;;4.11;56.63;100492.53;5114238;28;20282;-61
2022/03/04 10:01:51;;;;;;;38.75;20.98;;;;;;;4.21;56.51;100487.97;5114213;28;20059;-62
2022/03/04 10:04:18;;;;;;;36.28;20.27;;;;;;;4.31;56.52;100486.94;5114388;28;20047;-61
2022/03/04 10:06:49;;;;;;;32.60;19.00;;;;;;;4.41;57.22;100490.22;5114327;28;20052;-62
2022/03/04 10:09:41;;;;;;;32.00;17.27;;;;;;;4.53;57.42;100481.28;5114517;28;20062;-61
2022/03/04 10:12:10;;;;;;;29.93;16.00;;;;;;;4.71;56.70;100484.41;5114281;28;20491;-61
2022/03/04 10:15:03;;;;;;;24.00;15.25;;;;;;;4.83;57.45;100489.38;5114437;28;20289;-62
2022/03/04 10:17:32;;;;;;;26.60;15.35;;;;;;;5.01;56.79;100485.50;5110260;28;20048;-62
2022/03/04 10:20:01;;;;;;;27.95;15.27;;;;;;;5.16;56.73;100486.06;5113046;28;20104;-61
2022/03/04 10:22:42;;;;;;;24.38;13.98;;;;;;;5.28;56.85;100492.75;5114181;28;20135;-61
2022/03/04 10:25:24;;;;;;;22.17;13.40;;;;;;;5.43;56.40;100487.19;5114277;28;20043;-63
2022/03/04 10:27:52;;;;;;;22.33;13.05;;;;;;;5.63;56.20;100490.16;5113982;28;20047;-62
2022/03/04 10:30:42;;;;;;;22.35;12.18;;;;;;;5.75;55.76;100492.47;5112822;28;20494;-63
2022/03/04 10:33:19;;;;;;;19.83;11.30;;;;;;;5.93;55.36;100496.41;5113995;28;20059;-62
2022/03/04 10:36:03;;;;;;;18.95;12.18;;;;;;;6.05;55.31;100490.00;5093512;28;20093;-62
2022/03/04 10:38:30;;;;;;;18.48;11.02;;;;;;;6.22;55.13;100497.44;5093854;28;20106;-62
2022/03/04 10:40:57;;;;;;;20.77;11.70;;;;;;;6.34;54.82;100493.63;5093445;28;20055;-62
2022/03/04 10:43:31;;;;;;;21.65;12.00;;;;;;;6.44;54.43;100490.75;5093503;28;20117;-62
2022/03/04 10:46:05;;;;;;;18.73;11.25;;;;;;;6.59;54.34;100502.53;5093541;28;20664;-63
2022/03/04 10:48:32;;;;;;;18.90;11.35;;;;;;;6.69;54.13;100493.50;5108203;28;20050;-62
2022/03/04 10:51:06;;;;;;;18.90;11.20;;;;;;;6.80;54.23;100495.81;5113419;28;20051;-63
2022/03/04 10:53:34;;;;;;;19.52;11.20;;;;;;;6.91;54.16;100490.25;5113943;28;20480;-61
2022/03/04 10:56:06;;;;;;;20.08;11.88;;;;;;;7.01;53.67;100490.84;5113444;28;20097;-62
2022/03/04 10:58:40;;;;;;;20.85;11.70;;;;;;;7.10;53.54;100493.19;5112560;28;20056;-62
2022/03/04 11:01:17;;;;;;;19.30;11.13;;;;;;;7.20;53.34;100495.50;5111926;28;20083;-62
2022/03/04 11:03:44;;;;;;;16.25;10.50;;;;;;;7.31;53.05;100488.19;5113323;28;20537;-63
2022/03/04 11:06:14;;;;;;;17.30;10.18;;;;;;;7.39;52.81;100488.81;5113491;28;20047;-62
2022/03/04 11:08:44;;;;;;;18.83;10.75;;;;;;;7.53;52.77;100487.50;5112216;28;20051;-62
2022/03/04 11:11:11;;;;;;;19.85;10.93;;;;;;;7.62;52.91;100481.94;5113218;28;20496;-62
2022/03/04 11:13:38;;;;;;;13.60;9.38;;;;;;;7.74;52.91;100485.06;5112996;28;20047;-62
2022/03/04 11:16:06;;;;;;;18.15;10.40;;;;;;;7.84;52.54;100476.00;5113140;28;20082;-61
2022/03/04 11:18:34;;;;;;;15.43;9.73;;;;;;;7.95;52.51;100473.88;5111979;28;20130;-62